sensor_id;sensor_type;location;lat;lon;timestamp;P1;durP1;ratioP1;P2;durP2;ratioP2
29416;SDS011;28421;51.030;4.006;2023-04-24T03:17:19;11.35;;;8.13;;
29416;SDS011;28421;51.030;4.006;2023-04-24T03:19:44;13.98;;;8.40;;
29416;SDS011;28421;51.030;4.006;2023-04-24T03:22:11;10.02;;;6.55;;
29416;SDS011;28421;51.030;4.006;2023-04-24T03:24:38;8.23;;;6.10;;
29416;SDS011;28421;51.030;4.006;2023-04-24T03:27:04;14.23;;;7.93;;
29416;SDS011;28421;51.030;4.006;2023-04-24T03:29:52;9.68;;;6.90;;
29416;SDS011;28421;51.030;4.006;2023-04-24T03:32:22;11.93;;;6.80;;
29416;SDS011;28421;51.030;4.006;2023-04-24T03:34:48;11.23;;;5.10;;
29416;SDS011;28421;51.030;4.006;2023-04-24T03:37:14;12.25;;;6.47;;
29416;SDS011;28421;51.030;4.006;2023-04-24T03:39:46;8.90;;;6.32;;
29416;SDS011;28421;51.030;4.006;2023-04-24T03:42:13;7.97;;;5.78;;
29416;SDS011;28421;51.030;4.006;2023-04-24T03:44:48;13.85;;;7.05;;
29416;SDS011;28421;51.030;4.006;2023-04-24T03:47:14;11.52;;;5.22;;
29416;SDS011;28421;51.030;4.006;2023-04-24T03:49:40;8.10;;;5.65;;
29416;SDS011;28421;51.030;4.006;2023-04-24T03:52:07;8.13;;;4.55;;
29416;SDS011;28421;51.030;4.006;2023-04-24T03:54:33;16.13;;;4.35;;
29416;SDS011;28421;51.030;4.006;2023-04-24T03:56:59;11.88;;;5.80;;
29416;SDS011;28421;51.030;4.006;2023-04-24T03:59:26;12.18;;;6.75;;
29416;SDS011;28421;51.030;4.006;2023-04-24T04:02:08;18.95;;;7.20;;
29416;SDS011;28421;51.030;4.006;2023-04-24T04:04:33;16.80;;;9.18;;
29416;SDS011;28421;51.030;4.006;2023-04-24T04:06:59;16.88;;;8.45;;
29416;SDS011;28421;51.030;4.006;2023-04-24T04:09:26;17.27;;;8.77;;
29416;SDS011;28421;51.030;4.006;2023-04-24T04:11:52;18.50;;;10.68;;
29416;SDS011;28421;51.030;4.006;2023-04-24T04:14:18;15.93;;;9.30;;
29416;SDS011;28421;51.030;4.006;2023-04-24T04:16:46;16.95;;;9.52;;
29416;SDS011;28421;51.030;4.006;2023-04-24T04:19:13;18.88;;;10.55;;
29416;SDS011;28421;51.030;4.006;2023-04-24T04:21:38;24.45;;;10.02;;
29416;SDS011;28421;51.030;4.006;2023-04-24T04:24:11;18.20;;;10.13;;
29416;SDS011;28421;51.030;4.006;2023-04-24T04:26:41;19.85;;;10.95;;
29416;SDS011;28421;51.030;4.006;2023-04-24T04:29:17;20.55;;;9.60;;
29416;SDS011;28421;51.030;4.006;2023-04-24T04:31:49;17.38;;;10.35;;
29416;SDS011;28421;51.030;4.006;2023-04-24T04:34:15;20.30;;;9.35;;
29416;SDS011;28421;51.030;4.006;2023-04-24T04:36:41;24.30;;;11.88;;
29416;SDS011;28421;51.030;4.006;2023-04-24T04:39:38;26.40;;;11.52;;
29416;SDS011;28421;51.030;4.006;2023-04-24T04:42:07;19.95;;;10.20;;
29416;SDS011;28421;51.030;4.006;2023-04-24T04:44:39;17.52;;;10.40;;
29416;SDS011;28421;51.030;4.006;2023-04-24T04:47:06;20.20;;;10.40;;
29416;SDS011;28421;51.030;4.006;2023-04-24T04:49:35;18.92;;;9.57;;
29416;SDS011;28421;51.030;4.006;2023-04-24T04:52:03;20.73;;;10.30;;
29416;SDS011;28421;51.030;4.006;2023-04-24T04:54:28;13.93;;;8.85;;
29416;SDS011;28421;51.030;4.006;2023-04-24T04:56:55;24.33;;;10.32;;
29416;SDS011;28421;51.030;4.006;2023-04-24T04:59:22;17.45;;;8.00;;
29416;SDS011;28421;51.030;4.006;2023-04-24T05:01:53;15.98;;;9.32;;
29416;SDS011;28421;51.030;4.006;2023-04-24T05:04:20;20.70;;;8.63;;
29416;SDS011;28421;51.030;4.006;2023-04-24T05:06:46;19.10;;;10.52;;
29416;SDS011;28421;51.030;4.006;2023-04-24T05:09:12;15.73;;;9.73;;
29416;SDS011;28421;51.030;4.006;2023-04-24T05:11:52;22.00;;;9.50;;
29416;SDS011;28421;51.030;4.006;2023-04-24T05:14:19;20.90;;;10.13;;
29416;SDS011;28421;51.030;4.006;2023-04-24T05:16:44;14.75;;;9.15;;
29416;SDS011;28421;51.030;4.006;2023-04-24T05:19:11;15.95;;;9.85;;
29416;SDS011;28421;51.030;4.006;2023-04-24T05:21:40;29.38;;;9.57;;
29416;SDS011;28421;51.030;4.006;2023-04-24T05:24:07;19.45;;;9.52;;
29416;SDS011;28421;51.030;4.006;2023-04-24T05:27:03;24.15;;;10.85;;
29416;SDS011;28421;51.030;4.006;2023-04-24T05:29:37;13.95;;;9.38;;
29416;SDS011;28421;51.030;4.006;2023-04-24T05:32:04;13.80;;;9.00;;
29416;SDS011;28421;51.030;4.006;2023-04-24T05:34:30;19.83;;;10.63;;
29416;SDS011;28421;51.030;4.006;2023-04-24T05:36:56;19.45;;;12.27;;
29416;SDS011;28421;51.030;4.006;2023-04-24T05:39:22;15.63;;;9.90;;
29416;SDS011;28421;51.030;4.006;2023-04-24T05:41:50;31.33;;;12.48;;
29416;SDS011;28421;51.030;4.006;2023-04-24T05:44:16;26.65;;;12.20;;
29416;SDS011;28421;51.030;4.006;2023-04-24T05:46:41;18.80;;;10.20;;
29416;SDS011;28421;51.030;4.006;2023-04-24T05:49:08;21.70;;;11.65;;
29416;SDS011;28421;51.030;4.006;2023-04-24T05:51:34;21.40;;;11.38;;
29416;SDS011;28421;51.030;4.006;2023-04-24T05:54:00;32.30;;;12.25;;
29416;SDS011;28421;51.030;4.006;2023-04-24T05:56:26;24.08;;;12.18;;
29416;SDS011;28421;51.030;4.006;2023-04-24T05:58:52;28.55;;;13.07;;
29416;SDS011;28421;51.030;4.006;2023-04-24T06:01:17;22.27;;;13.30;;
29416;SDS011;28421;51.030;4.006;2023-04-24T06:03:48;23.15;;;13.00;;
29416;SDS011;28421;51.030;4.006;2023-04-24T06:06:13;17.88;;;10.30;;
29416;SDS011;28421;51.030;4.006;2023-04-24T06:08:40;23.60;;;12.00;;
29416;SDS011;28421;51.030;4.006;2023-04-24T06:11:07;20.45;;;11.73;;
29416;SDS011;28421;51.030;4.006;2023-04-24T06:13:34;25.63;;;12.65;;
29416;SDS011;28421;51.030;4.006;2023-04-24T06:16:20;27.05;;;11.65;;
29416;SDS011;28421;51.030;4.006;2023-04-24T06:18:52;22.05;;;11.98;;
29416;SDS011;28421;51.030;4.006;2023-04-24T06:21:19;26.83;;;11.68;;
29416;SDS011;28421;51.030;4.006;2023-04-24T06:23:45;33.58;;;15.00;;
29416;SDS011;28421;51.030;4.006;2023-04-24T06:26:11;26.25;;;12.90;;
29416;SDS011;28421;51.030;4.006;2023-04-24T06:28:37;25.85;;;13.60;;
29416;SDS011;28421;51.030;4.006;2023-04-24T06:31:03;32.28;;;13.98;;
29416;SDS011;28421;51.030;4.006;2023-04-24T06:33:28;30.60;;;15.93;;
29416;SDS011;28421;51.030;4.006;2023-04-24T06:35:54;28.33;;;14.75;;
29416;SDS011;28421;51.030;4.006;2023-04-24T06:38:19;37.55;;;13.43;;
29416;SDS011;28421;51.030;4.006;2023-04-24T06:40:45;29.90;;;14.13;;
29416;SDS011;28421;51.030;4.006;2023-04-24T06:43:10;34.47;;;14.90;;
29416;SDS011;28421;51.030;4.006;2023-04-24T06:45:36;32.03;;;15.68;;
29416;SDS011;28421;51.030;4.006;2023-04-24T06:48:01;30.98;;;14.23;;
29416;SDS011;28421;51.030;4.006;2023-04-24T06:50:27;26.23;;;13.07;;
29416;SDS011;28421;51.030;4.006;2023-04-24T06:52:53;28.10;;;14.10;;
29416;SDS011;28421;51.030;4.006;2023-04-24T06:55:18;27.35;;;14.00;;
29416;SDS011;28421;51.030;4.006;2023-04-24T06:57:44;32.42;;;13.18;;
29416;SDS011;28421;51.030;4.006;2023-04-24T07:00:10;28.65;;;13.73;;
29416;SDS011;28421;51.030;4.006;2023-04-24T07:02:36;35.35;;;14.27;;
29416;SDS011;28421;51.030;4.006;2023-04-24T07:05:02;25.92;;;13.13;;
29416;SDS011;28421;51.030;4.006;2023-04-24T07:07:28;23.38;;;13.25;;
29416;SDS011;28421;51.030;4.006;2023-04-24T07:09:54;26.77;;;14.65;;
29416;SDS011;28421;51.030;4.006;2023-04-24T07:12:21;28.40;;;12.88;;
29416;SDS011;28421;51.030;4.006;2023-04-24T07:14:47;25.80;;;12.82;;
29416;SDS011;28421;51.030;4.006;2023-04-24T07:17:13;33.40;;;12.57;;
29416;SDS011;28421;51.030;4.006;2023-04-24T07:19:39;33.65;;;12.05;;
29416;SDS011;28421;51.030;4.006;2023-04-24T07:22:04;24.02;;;11.70;;
29416;SDS011;28421;51.030;4.006;2023-04-24T07:24:30;26.60;;;10.63;;
29416;SDS011;28421;51.030;4.006;2023-04-24T07:26:57;16.95;;;8.93;;
29416;SDS011;28421;51.030;4.006;2023-04-24T07:29:22;22.25;;;10.63;;
29416;SDS011;28421;51.030;4.006;2023-04-24T07:31:48;23.50;;;10.75;;
29416;SDS011;28421;51.030;4.006;2023-04-24T07:34:13;17.42;;;9.52;;
29416;SDS011;28421;51.030;4.006;2023-04-24T07:36:40;25.15;;;10.18;;
29416;SDS011;28421;51.030;4.006;2023-04-24T07:39:07;24.45;;;9.48;;
29416;SDS011;28421;51.030;4.006;2023-04-24T07:41:33;20.63;;;9.82;;
29416;SDS011;28421;51.030;4.006;2023-04-24T07:43:59;20.75;;;8.60;;
29416;SDS011;28421;51.030;4.006;2023-04-24T07:46:24;19.65;;;8.23;;
29416;SDS011;28421;51.030;4.006;2023-04-24T07:48:50;24.08;;;8.90;;
29416;SDS011;28421;51.030;4.006;2023-04-24T07:51:16;28.00;;;7.85;;
29416;SDS011;28421;51.030;4.006;2023-04-24T07:53:42;26.45;;;7.85;;
29416;SDS011;28421;51.030;4.006;2023-04-24T07:56:08;36.05;;;10.68;;
29416;SDS011;28421;51.030;4.006;2023-04-24T07:58:34;22.70;;;10.52;;
29416;SDS011;28421;51.030;4.006;2023-04-24T08:01:00;17.95;;;7.50;;
29416;SDS011;28421;51.030;4.006;2023-04-24T08:03:25;26.52;;;7.75;;
29416;SDS011;28421;51.030;4.006;2023-04-24T08:05:51;15.85;;;7.38;;
29416;SDS011;28421;51.030;4.006;2023-04-24T08:08:16;15.13;;;6.25;;
29416;SDS011;28421;51.030;4.006;2023-04-24T08:10:42;14.98;;;5.65;;
29416;SDS011;28421;51.030;4.006;2023-04-24T08:13:08;13.27;;;6.07;;
29416;SDS011;28421;51.030;4.006;2023-04-24T08:15:34;11.73;;;6.13;;
29416;SDS011;28421;51.030;4.006;2023-04-24T08:17:59;17.77;;;6.13;;
29416;SDS011;28421;51.030;4.006;2023-04-24T08:20:25;23.67;;;6.18;;
29416;SDS011;28421;51.030;4.006;2023-04-24T08:22:50;13.38;;;7.70;;
29416;SDS011;28421;51.030;4.006;2023-04-24T08:25:16;18.55;;;6.90;;
29416;SDS011;28421;51.030;4.006;2023-04-24T08:27:43;21.85;;;8.10;;
29416;SDS011;28421;51.030;4.006;2023-04-24T08:30:08;17.38;;;8.05;;
29416;SDS011;28421;51.030;4.006;2023-04-24T08:32:34;18.92;;;8.05;;
29416;SDS011;28421;51.030;4.006;2023-04-24T08:35:00;18.38;;;8.38;;
29416;SDS011;28421;51.030;4.006;2023-04-24T08:37:26;13.07;;;5.90;;
29416;SDS011;28421;51.030;4.006;2023-04-24T08:39:52;22.42;;;7.95;;
29416;SDS011;28421;51.030;4.006;2023-04-24T08:42:19;13.18;;;7.18;;
29416;SDS011;28421;51.030;4.006;2023-04-24T08:44:46;16.27;;;5.60;;
29416;SDS011;28421;51.030;4.006;2023-04-24T08:47:13;10.73;;;5.93;;
29416;SDS011;28421;51.030;4.006;2023-04-24T08:49:40;11.77;;;5.32;;
29416;SDS011;28421;51.030;4.006;2023-04-24T08:52:06;9.40;;;5.22;;
29416;SDS011;28421;51.030;4.006;2023-04-24T08:54:33;8.25;;;4.68;;
29416;SDS011;28421;51.030;4.006;2023-04-24T08:57:01;6.80;;;4.18;;
29416;SDS011;28421;51.030;4.006;2023-04-24T08:59:29;9.38;;;5.00;;
29416;SDS011;28421;51.030;4.006;2023-04-24T09:01:55;17.42;;;4.57;;
29416;SDS011;28421;51.030;4.006;2023-04-24T09:04:22;8.13;;;4.25;;
29416;SDS011;28421;51.030;4.006;2023-04-24T09:06:56;11.82;;;4.20;;
29416;SDS011;28421;51.030;4.006;2023-04-24T09:09:23;14.68;;;4.45;;
29416;SDS011;28421;51.030;4.006;2023-04-24T09:11:50;18.48;;;6.18;;
29416;SDS011;28421;51.030;4.006;2023-04-24T09:14:19;17.25;;;3.70;;
29416;SDS011;28421;51.030;4.006;2023-04-24T09:16:45;11.55;;;3.88;;
29416;SDS011;28421;51.030;4.006;2023-04-24T09:19:11;10.65;;;3.88;;
29416;SDS011;28421;51.030;4.006;2023-04-24T09:21:37;12.85;;;4.55;;
29416;SDS011;28421;51.030;4.006;2023-04-24T09:24:04;5.95;;;3.30;;
29416;SDS011;28421;51.030;4.006;2023-04-24T09:26:31;13.60;;;4.00;;
29416;SDS011;28421;51.030;4.006;2023-04-24T09:28:58;12.75;;;3.53;;
29416;SDS011;28421;51.030;4.006;2023-04-24T09:31:24;7.63;;;3.58;;
29416;SDS011;28421;51.030;4.006;2023-04-24T09:33:57;4.47;;;3.00;;
29416;SDS011;28421;51.030;4.006;2023-04-24T09:36:31;11.70;;;4.10;;
29416;SDS011;28421;51.030;4.006;2023-04-24T09:39:02;7.80;;;3.45;;
29416;SDS011;28421;51.030;4.006;2023-04-24T09:41:31;9.90;;;3.80;;
29416;SDS011;28421;51.030;4.006;2023-04-24T09:44:10;11.02;;;3.92;;
29416;SDS011;28421;51.030;4.006;2023-04-24T09:46:38;7.32;;;3.20;;
29416;SDS011;28421;51.030;4.006;2023-04-24T09:49:11;7.80;;;3.40;;
29416;SDS011;28421;51.030;4.006;2023-04-24T09:51:39;10.10;;;3.22;;
29416;SDS011;28421;51.030;4.006;2023-04-24T09:54:15;4.70;;;3.53;;
29416;SDS011;28421;51.030;4.006;2023-04-24T09:56:45;9.40;;;4.15;;
29416;SDS011;28421;51.030;4.006;2023-04-24T09:59:12;4.57;;;2.58;;
29416;SDS011;28421;51.030;4.006;2023-04-24T10:01:39;8.57;;;3.33;;
29416;SDS011;28421;51.030;4.006;2023-04-24T10:04:17;7.40;;;3.65;;
29416;SDS011;28421;51.030;4.006;2023-04-24T10:06:54;9.70;;;3.63;;
29416;SDS011;28421;51.030;4.006;2023-04-24T10:09:25;7.15;;;3.67;;
29416;SDS011;28421;51.030;4.006;2023-04-24T10:11:52;7.03;;;3.90;;
29416;SDS011;28421;51.030;4.006;2023-04-24T10:14:20;11.43;;;3.83;;
29416;SDS011;28421;51.030;4.006;2023-04-24T10:16:47;9.15;;;4.43;;
29416;SDS011;28421;51.030;4.006;2023-04-24T10:19:14;10.65;;;3.90;;
29416;SDS011;28421;51.030;4.006;2023-04-24T10:21:41;15.82;;;4.55;;
29416;SDS011;28421;51.030;4.006;2023-04-24T10:24:11;6.65;;;3.35;;
29416;SDS011;28421;51.030;4.006;2023-04-24T10:26:38;4.75;;;3.00;;
29416;SDS011;28421;51.030;4.006;2023-04-24T10:29:03;7.15;;;3.78;;
29416;SDS011;28421;51.030;4.006;2023-04-24T10:31:31;6.90;;;3.35;;
29416;SDS011;28421;51.030;4.006;2023-04-24T10:33:58;4.30;;;2.85;;
29416;SDS011;28421;51.030;4.006;2023-04-24T10:36:26;8.25;;;3.72;;
29416;SDS011;28421;51.030;4.006;2023-04-24T10:38:54;4.78;;;3.28;;
29416;SDS011;28421;51.030;4.006;2023-04-24T10:41:22;8.07;;;3.40;;
29416;SDS011;28421;51.030;4.006;2023-04-24T10:44:07;20.40;;;3.88;;
29416;SDS011;28421;51.030;4.006;2023-04-24T10:46:33;10.65;;;3.67;;
29416;SDS011;28421;51.030;4.006;2023-04-24T10:48:59;6.50;;;3.53;;
29416;SDS011;28421;51.030;4.006;2023-04-24T10:52:05;8.38;;;3.67;;
29416;SDS011;28421;51.030;4.006;2023-04-24T10:54:28;6.30;;;3.83;;
29416;SDS011;28421;51.030;4.006;2023-04-24T11:02:39;10.20;;;4.25;;
29416;SDS011;28421;51.030;4.006;2023-04-24T11:05:08;7.82;;;3.42;;
29416;SDS011;28421;51.030;4.006;2023-04-24T11:10:33;8.98;;;3.78;;
29416;SDS011;28421;51.030;4.006;2023-04-24T11:13:02;7.43;;;3.80;;
29416;SDS011;28421;51.030;4.006;2023-04-24T11:15:28;9.13;;;4.40;;
29416;SDS011;28421;51.030;4.006;2023-04-24T11:17:55;4.38;;;3.20;;
29416;SDS011;28421;51.030;4.006;2023-04-24T11:20:22;7.90;;;3.55;;
29416;SDS011;28421;51.030;4.006;2023-04-24T11:22:48;10.05;;;4.05;;
29416;SDS011;28421;51.030;4.006;2023-04-24T11:25:20;8.02;;;3.72;;
29416;SDS011;28421;51.030;4.006;2023-04-24T11:27:48;8.27;;;3.40;;
29416;SDS011;28421;51.030;4.006;2023-04-24T11:30:19;7.68;;;3.28;;
29416;SDS011;28421;51.030;4.006;2023-04-24T11:32:50;6.22;;;3.53;;
29416;SDS011;28421;51.030;4.006;2023-04-24T11:35:20;10.02;;;4.05;;
29416;SDS011;28421;51.030;4.006;2023-04-24T11:37:51;6.50;;;3.15;;
29416;SDS011;28421;51.030;4.006;2023-04-24T11:40:18;5.82;;;3.28;;
29416;SDS011;28421;51.030;4.006;2023-04-24T11:42:46;5.05;;;3.00;;
29416;SDS011;28421;51.030;4.006;2023-04-24T11:45:13;7.03;;;2.88;;
29416;SDS011;28421;51.030;4.006;2023-04-24T11:47:40;6.78;;;3.28;;
29416;SDS011;28421;51.030;4.006;2023-04-24T11:50:08;3.70;;;2.67;;
29416;SDS011;28421;51.030;4.006;2023-04-24T11:52:38;2.97;;;2.63;;
29416;SDS011;28421;51.030;4.006;2023-04-24T11:57:42;6.97;;;2.55;;
29416;SDS011;28421;51.030;4.006;2023-04-24T12:00:15;8.82;;;3.72;;
29416;SDS011;28421;51.030;4.006;2023-04-24T12:02:41;9.90;;;3.70;;
29416;SDS011;28421;51.030;4.006;2023-04-24T12:05:07;4.13;;;2.97;;
29416;SDS011;28421;51.030;4.006;2023-04-24T12:07:36;9.73;;;3.08;;
29416;SDS011;28421;51.030;4.006;2023-04-24T12:10:08;8.27;;;3.97;;
29416;SDS011;28421;51.030;4.006;2023-04-24T12:12:34;4.28;;;3.03;;
29416;SDS011;28421;51.030;4.006;2023-04-24T12:15:00;8.45;;;3.00;;
29416;SDS011;28421;51.030;4.006;2023-04-24T12:17:31;8.75;;;3.83;;
29416;SDS011;28421;51.030;4.006;2023-04-24T12:20:02;7.93;;;2.90;;
29416;SDS011;28421;51.030;4.006;2023-04-24T12:23:03;8.25;;;2.70;;
29416;SDS011;28421;51.030;4.006;2023-04-24T12:25:23;7.75;;;3.22;;
29416;SDS011;28421;51.030;4.006;2023-04-24T12:27:54;4.75;;;2.08;;
29416;SDS011;28421;51.030;4.006;2023-04-24T12:30:21;2.92;;;2.47;;
29416;SDS011;28421;51.030;4.006;2023-04-24T12:32:51;4.22;;;2.00;;
29416;SDS011;28421;51.030;4.006;2023-04-24T12:35:20;6.35;;;2.17;;
29416;SDS011;28421;51.030;4.006;2023-04-24T12:37:47;5.35;;;2.33;;
29416;SDS011;28421;51.030;4.006;2023-04-24T12:40:13;3.42;;;2.03;;
29416;SDS011;28421;51.030;4.006;2023-04-24T12:42:46;4.47;;;2.17;;
29416;SDS011;28421;51.030;4.006;2023-04-24T12:45:14;3.03;;;1.80;;
29416;SDS011;28421;51.030;4.006;2023-04-24T12:47:40;7.40;;;2.25;;
29416;SDS011;28421;51.030;4.006;2023-04-24T12:50:08;7.95;;;2.15;;
29416;SDS011;28421;51.030;4.006;2023-04-24T12:52:35;4.28;;;1.55;;
29416;SDS011;28421;51.030;4.006;2023-04-24T12:55:01;4.95;;;2.03;;
29416;SDS011;28421;51.030;4.006;2023-04-24T12:57:28;4.90;;;2.10;;
29416;SDS011;28421;51.030;4.006;2023-04-24T12:59:55;5.47;;;2.08;;
29416;SDS011;28421;51.030;4.006;2023-04-24T13:02:25;5.68;;;1.58;;
29416;SDS011;28421;51.030;4.006;2023-04-24T13:04:52;2.03;;;1.60;;
29416;SDS011;28421;51.030;4.006;2023-04-24T13:07:18;5.75;;;2.03;;
29416;SDS011;28421;51.030;4.006;2023-04-24T13:09:44;4.55;;;1.73;;
29416;SDS011;28421;51.030;4.006;2023-04-24T13:12:11;8.73;;;1.70;;
29416;SDS011;28421;51.030;4.006;2023-04-24T13:14:37;3.05;;;1.52;;
29416;SDS011;28421;51.030;4.006;2023-04-24T13:17:03;5.45;;;1.50;;
29416;SDS011;28421;51.030;4.006;2023-04-24T13:19:34;1.98;;;1.48;;
29416;SDS011;28421;51.030;4.006;2023-04-24T13:22:01;4.20;;;1.58;;
29416;SDS011;28421;51.030;4.006;2023-04-24T13:24:26;6.95;;;1.55;;
29416;SDS011;28421;51.030;4.006;2023-04-24T13:26:52;7.13;;;1.55;;
29416;SDS011;28421;51.030;4.006;2023-04-24T13:29:18;2.78;;;1.30;;
29416;SDS011;28421;51.030;4.006;2023-04-24T13:31:45;4.30;;;1.50;;
29416;SDS011;28421;51.030;4.006;2023-04-24T13:34:12;3.47;;;1.70;;
29416;SDS011;28421;51.030;4.006;2023-04-24T13:36:38;3.83;;;1.30;;
29416;SDS011;28421;51.030;4.006;2023-04-24T13:39:04;1.33;;;1.23;;
29416;SDS011;28421;51.030;4.006;2023-04-24T13:41:31;2.40;;;1.40;;
29416;SDS011;28421;51.030;4.006;2023-04-24T13:43:57;2.55;;;1.35;;
29416;SDS011;28421;51.030;4.006;2023-04-24T13:46:25;1.70;;;1.00;;
29416;SDS011;28421;51.030;4.006;2023-04-24T13:48:50;6.85;;;1.77;;
29416;SDS011;28421;51.030;4.006;2023-04-24T13:51:16;2.45;;;1.02;;
29416;SDS011;28421;51.030;4.006;2023-04-24T13:53:42;2.30;;;1.25;;
29416;SDS011;28421;51.030;4.006;2023-04-24T13:56:07;3.15;;;1.33;;
29416;SDS011;28421;51.030;4.006;2023-04-24T13:58:34;2.05;;;1.23;;
29416;SDS011;28421;51.030;4.006;2023-04-24T14:01:02;3.28;;;1.33;;
29416;SDS011;28421;51.030;4.006;2023-04-24T14:03:28;4.30;;;1.35;;
29416;SDS011;28421;51.030;4.006;2023-04-24T14:05:54;1.60;;;0.90;;
29416;SDS011;28421;51.030;4.006;2023-04-24T14:08:19;5.93;;;1.23;;
29416;SDS011;28421;51.030;4.006;2023-04-24T14:10:45;1.83;;;1.13;;
29416;SDS011;28421;51.030;4.006;2023-04-24T14:13:11;3.90;;;1.38;;
29416;SDS011;28421;51.030;4.006;2023-04-24T14:15:37;3.05;;;1.88;;
29416;SDS011;28421;51.030;4.006;2023-04-24T14:18:02;1.85;;;1.30;;
29416;SDS011;28421;51.030;4.006;2023-04-24T14:20:28;2.92;;;1.08;;
29416;SDS011;28421;51.030;4.006;2023-04-24T14:22:54;6.93;;;1.25;;
29416;SDS011;28421;51.030;4.006;2023-04-24T14:25:19;1.60;;;1.05;;
29416;SDS011;28421;51.030;4.006;2023-04-24T14:27:45;8.45;;;1.55;;
29416;SDS011;28421;51.030;4.006;2023-04-24T14:30:12;3.78;;;1.38;;
29416;SDS011;28421;51.030;4.006;2023-04-24T14:32:38;2.63;;;1.50;;
29416;SDS011;28421;51.030;4.006;2023-04-24T14:35:05;3.25;;;1.40;;
29416;SDS011;28421;51.030;4.006;2023-04-24T14:37:32;7.80;;;3.13;;
29416;SDS011;28421;51.030;4.006;2023-04-24T14:39:57;6.20;;;1.65;;
29416;SDS011;28421;51.030;4.006;2023-04-24T14:42:23;3.58;;;1.20;;
29416;SDS011;28421;51.030;4.006;2023-04-24T14:44:49;2.80;;;1.90;;
29416;SDS011;28421;51.030;4.006;2023-04-24T14:47:15;5.50;;;1.73;;
29416;SDS011;28421;51.030;4.006;2023-04-24T14:49:42;2.38;;;1.30;;
29416;SDS011;28421;51.030;4.006;2023-04-24T14:52:09;1.38;;;0.80;;
29416;SDS011;28421;51.030;4.006;2023-04-24T14:54:35;3.05;;;1.55;;
29416;SDS011;28421;51.030;4.006;2023-04-24T14:57:00;3.30;;;1.42;;
29416;SDS011;28421;51.030;4.006;2023-04-24T14:59:27;1.60;;;1.30;;
29416;SDS011;28421;51.030;4.006;2023-04-24T15:01:53;4.45;;;1.58;;
29416;SDS011;28421;51.030;4.006;2023-04-24T15:04:23;8.70;;;1.60;;
29416;SDS011;28421;51.030;4.006;2023-04-24T15:06:50;3.15;;;1.30;;
29416;SDS011;28421;51.030;4.006;2023-04-24T15:09:17;5.63;;;2.35;;
29416;SDS011;28421;51.030;4.006;2023-04-24T15:11:42;2.42;;;1.70;;
29416;SDS011;28421;51.030;4.006;2023-04-24T15:14:08;2.42;;;2.13;;
29416;SDS011;28421;51.030;4.006;2023-04-24T15:16:33;3.50;;;1.08;;
29416;SDS011;28421;51.030;4.006;2023-04-24T15:18:59;2.92;;;1.35;;
29416;SDS011;28421;51.030;4.006;2023-04-24T15:21:24;1.60;;;1.50;;
29416;SDS011;28421;51.030;4.006;2023-04-24T15:23:50;6.40;;;2.20;;
29416;SDS011;28421;51.030;4.006;2023-04-24T15:26:16;4.40;;;2.15;;
29416;SDS011;28421;51.030;4.006;2023-04-24T15:28:42;3.10;;;1.80;;
29416;SDS011;28421;51.030;4.006;2023-04-24T15:31:07;3.42;;;1.30;;
29416;SDS011;28421;51.030;4.006;2023-04-24T15:33:33;2.10;;;1.83;;
29416;SDS011;28421;51.030;4.006;2023-04-24T15:35:59;5.25;;;1.75;;
29416;SDS011;28421;51.030;4.006;2023-04-24T15:38:25;4.65;;;1.85;;
29416;SDS011;28421;51.030;4.006;2023-04-24T15:40:50;3.75;;;1.50;;
29416;SDS011;28421;51.030;4.006;2023-04-24T15:43:16;2.38;;;1.70;;
29416;SDS011;28421;51.030;4.006;2023-04-24T15:45:42;4.13;;;1.90;;
29416;SDS011;28421;51.030;4.006;2023-04-24T15:48:08;3.25;;;1.60;;
29416;SDS011;28421;51.030;4.006;2023-04-24T15:50:34;5.45;;;1.80;;
29416;SDS011;28421;51.030;4.006;2023-04-24T15:52:59;4.97;;;2.17;;
29416;SDS011;28421;51.030;4.006;2023-04-24T15:55:25;5.10;;;1.85;;
29416;SDS011;28421;51.030;4.006;2023-04-24T15:57:50;2.70;;;1.77;;
29416;SDS011;28421;51.030;4.006;2023-04-24T16:00:16;1.88;;;1.48;;
29416;SDS011;28421;51.030;4.006;2023-04-24T16:02:42;5.72;;;2.08;;
29416;SDS011;28421;51.030;4.006;2023-04-24T16:05:15;8.30;;;2.50;;
29416;SDS011;28421;51.030;4.006;2023-04-24T16:07:50;3.17;;;2.20;;
29416;SDS011;28421;51.030;4.006;2023-04-24T16:10:15;4.55;;;2.38;;
29416;SDS011;28421;51.030;4.006;2023-04-24T16:12:41;3.20;;;2.17;;
29416;SDS011;28421;51.030;4.006;2023-04-24T16:15:06;5.97;;;2.95;;
29416;SDS011;28421;51.030;4.006;2023-04-24T16:17:32;4.78;;;2.45;;
29416;SDS011;28421;51.030;4.006;2023-04-24T16:19:58;5.78;;;3.40;;
29416;SDS011;28421;51.030;4.006;2023-04-24T16:22:23;4.95;;;2.40;;
29416;SDS011;28421;51.030;4.006;2023-04-24T16:24:49;3.03;;;2.47;;
29416;SDS011;28421;51.030;4.006;2023-04-24T16:27:14;3.00;;;2.40;;
29416;SDS011;28421;51.030;4.006;2023-04-24T16:29:40;3.55;;;2.20;;
29416;SDS011;28421;51.030;4.006;2023-04-24T16:32:05;7.63;;;1.85;;
29416;SDS011;28421;51.030;4.006;2023-04-24T16:34:31;4.25;;;2.42;;
29416;SDS011;28421;51.030;4.006;2023-04-24T16:36:57;9.98;;;5.07;;
29416;SDS011;28421;51.030;4.006;2023-04-24T16:39:22;12.60;;;6.45;;
29416;SDS011;28421;51.030;4.006;2023-04-24T16:41:48;15.73;;;6.40;;
29416;SDS011;28421;51.030;4.006;2023-04-24T16:44:14;14.50;;;6.68;;
29416;SDS011;28421;51.030;4.006;2023-04-24T16:46:39;9.93;;;4.32;;
29416;SDS011;28421;51.030;4.006;2023-04-24T16:49:05;7.55;;;3.75;;
29416;SDS011;28421;51.030;4.006;2023-04-24T16:51:31;8.02;;;4.00;;
29416;SDS011;28421;51.030;4.006;2023-04-24T16:53:57;8.63;;;4.70;;
29416;SDS011;28421;51.030;4.006;2023-04-24T16:56:23;7.03;;;3.50;;
29416;SDS011;28421;51.030;4.006;2023-04-24T16:58:48;7.47;;;3.65;;
29416;SDS011;28421;51.030;4.006;2023-04-24T17:01:14;8.95;;;4.22;;
29416;SDS011;28421;51.030;4.006;2023-04-24T17:03:39;3.70;;;3.03;;
29416;SDS011;28421;51.030;4.006;2023-04-24T17:06:05;9.98;;;3.58;;
29416;SDS011;28421;51.030;4.006;2023-04-24T17:08:31;5.90;;;2.90;;
29416;SDS011;28421;51.030;4.006;2023-04-24T17:10:57;6.93;;;2.47;;
29416;SDS011;28421;51.030;4.006;2023-04-24T17:13:22;4.40;;;3.03;;
29416;SDS011;28421;51.030;4.006;2023-04-24T17:15:48;5.30;;;2.70;;
29416;SDS011;28421;51.030;4.006;2023-04-24T17:18:13;13.73;;;2.17;;
29416;SDS011;28421;51.030;4.006;2023-04-24T17:20:39;3.28;;;2.80;;
29416;SDS011;28421;51.030;4.006;2023-04-24T17:23:05;5.78;;;2.40;;
29416;SDS011;28421;51.030;4.006;2023-04-24T17:25:30;2.63;;;2.25;;
29416;SDS011;28421;51.030;4.006;2023-04-24T17:27:56;4.57;;;2.50;;
29416;SDS011;28421;51.030;4.006;2023-04-24T17:30:21;7.35;;;2.67;;
29416;SDS011;28421;51.030;4.006;2023-04-24T17:32:47;4.70;;;2.30;;
29416;SDS011;28421;51.030;4.006;2023-04-24T17:35:12;2.60;;;2.13;;
29416;SDS011;28421;51.030;4.006;2023-04-24T17:37:38;5.70;;;2.88;;
29416;SDS011;28421;51.030;4.006;2023-04-24T17:40:03;7.63;;;2.35;;
29416;SDS011;28421;51.030;4.006;2023-04-24T17:42:29;3.33;;;2.03;;
29416;SDS011;28421;51.030;4.006;2023-04-24T17:44:55;2.00;;;1.80;;
29416;SDS011;28421;51.030;4.006;2023-04-24T17:47:20;12.05;;;2.65;;
29416;SDS011;28421;51.030;4.006;2023-04-24T17:49:46;3.78;;;1.90;;
29416;SDS011;28421;51.030;4.006;2023-04-24T17:52:12;7.32;;;2.15;;
29416;SDS011;28421;51.030;4.006;2023-04-24T17:54:38;13.73;;;3.17;;
29416;SDS011;28421;51.030;4.006;2023-04-24T17:57:04;5.68;;;2.40;;
29416;SDS011;28421;51.030;4.006;2023-04-24T17:59:29;2.95;;;1.88;;
29416;SDS011;28421;51.030;4.006;2023-04-24T18:01:55;7.90;;;2.38;;
29416;SDS011;28421;51.030;4.006;2023-04-24T18:04:21;6.03;;;1.80;;
29416;SDS011;28421;51.030;4.006;2023-04-24T18:06:46;4.13;;;2.33;;
29416;SDS011;28421;51.030;4.006;2023-04-24T18:09:12;5.25;;;2.10;;